createdAt,value
2023-04-12T00:01:27.786Z,12.16
2023-04-12T00:03:56.431Z,12.15
2023-04-12T00:06:27.757Z,12.11
2023-04-12T00:08:56.424Z,12.06
2023-04-12T00:11:26.332Z,12.05
2023-04-12T00:13:55.242Z,12.04
2023-04-12T00:16:24.948Z,12.01
2023-04-12T00:18:54.550Z,12.01
2023-04-12T00:21:23.979Z,11.96
2023-04-12T00:23:52.408Z,11.92
2023-04-12T00:26:21.906Z,11.93
2023-04-12T00:28:50.579Z,11.90
2023-04-12T00:31:21.789Z,11.86
2023-04-12T00:33:50.046Z,11.78
2023-04-12T00:36:23.846Z,11.70
2023-04-12T00:38:52.416Z,11.67
2023-04-12T00:41:21.127Z,11.67
2023-04-12T00:43:49.955Z,11.67
2023-04-12T00:46:19.955Z,11.58
2023-04-12T00:48:48.516Z,11.52
2023-04-12T00:51:22.492Z,11.53
2023-04-12T00:53:50.773Z,11.57
2023-04-12T00:56:23.782Z,11.61
2023-04-12T00:58:52.498Z,11.65
2023-04-12T01:01:26.155Z,11.68
2023-04-12T01:04:01.203Z,11.70
2023-04-12T01:06:32.529Z,11.73
2023-04-12T01:09:15.845Z,11.73
2023-04-12T01:12:05.723Z,11.68
2023-04-12T01:14:38.170Z,11.65
2023-04-12T01:17:07.592Z,11.65
2023-04-12T01:19:53.871Z,11.62
2023-04-12T01:22:59.906Z,11.58
2023-04-12T01:25:39.594Z,11.49
2023-04-12T01:28:10.415Z,11.46
2023-04-12T01:30:38.890Z,11.46
2023-04-12T01:33:07.483Z,11.46
2023-04-12T01:35:36.978Z,11.48
2023-04-12T01:38:05.188Z,11.46
2023-04-12T01:40:33.470Z,11.43
2023-04-12T01:43:12.063Z,11.33
2023-04-12T01:45:40.527Z,11.21
2023-04-12T01:48:10.886Z,11.10
2023-04-12T01:51:06.536Z,11.06
2023-04-12T01:53:38.805Z,11.06
2023-04-12T01:56:09.311Z,11.04
2023-04-12T01:58:40.497Z,11.04
2023-04-12T02:01:09.278Z,10.95
2023-04-12T02:03:42.706Z,10.96
2023-04-12T02:06:11.330Z,10.95
2023-04-12T02:08:39.523Z,10.94
2023-04-12T02:11:14.849Z,10.95
2023-04-12T02:13:45.986Z,10.95
2023-04-12T02:16:14.420Z,10.95
2023-04-12T02:18:43.915Z,10.97
2023-04-12T02:21:14.364Z,10.97
2023-04-12T02:23:45.156Z,10.96
2023-04-12T02:26:13.520Z,10.94
2023-04-12T02:28:43.062Z,10.88
2023-04-12T02:31:17.189Z,10.84
2023-04-12T02:33:46.772Z,10.84
2023-04-12T02:36:15.562Z,10.83
2023-04-12T02:38:44.589Z,10.79
2023-04-12T02:41:20.617Z,10.80
2023-04-12T02:43:49.180Z,10.81
2023-04-12T02:46:25.444Z,10.81
2023-04-12T02:48:57.527Z,10.82
2023-04-12T02:51:33.386Z,10.76
2023-04-12T02:54:04.151Z,10.67
2023-04-12T02:56:41.134Z,10.61
2023-04-12T02:59:29.237Z,10.61
2023-04-12T03:02:09.243Z,10.60
2023-04-12T03:04:40.263Z,10.57
2023-04-12T03:07:14.116Z,10.59
2023-04-12T03:09:49.846Z,10.60
2023-04-12T03:12:18.526Z,10.63
2023-04-12T03:15:08.175Z,10.66
2023-04-12T03:17:37.220Z,10.61
2023-04-12T03:20:12.053Z,10.53
2023-04-12T03:22:45.823Z,10.54
2023-04-12T03:25:14.107Z,10.56
2023-04-12T03:27:47.284Z,10.58
2023-04-12T03:30:17.152Z,10.61
2023-04-12T03:32:46.172Z,10.60
2023-04-12T03:35:17.073Z,10.61
2023-04-12T03:37:46.699Z,10.60
2023-04-12T03:40:14.941Z,10.54
2023-04-12T03:42:48.656Z,10.52
2023-04-12T03:45:17.267Z,10.54
2023-04-12T03:47:49.882Z,10.57
2023-04-12T03:50:20.834Z,10.57
2023-04-12T03:52:55.262Z,10.58
2023-04-12T03:55:26.351Z,10.58
2023-04-12T03:57:56.645Z,10.58
2023-04-12T04:00:25.748Z,10.58
2023-04-12T04:03:10.717Z,10.60
2023-04-12T04:05:48.097Z,10.61
2023-04-12T04:08:20.197Z,10.59
2023-04-12T04:10:52.770Z,10.59
2023-04-12T04:13:35.179Z,10.57
2023-04-12T04:16:07.509Z,10.52
2023-04-12T04:18:36.240Z,10.49
2023-04-12T04:21:09.667Z,10.50
2023-04-12T04:23:39.144Z,10.51
2023-04-12T04:26:10.621Z,10.51
2023-04-12T04:28:46.460Z,10.48
2023-04-12T04:31:18.078Z,10.46
2023-04-12T04:33:50.979Z,10.48
2023-04-12T04:36:21.462Z,10.49
2023-04-12T04:38:59.530Z,10.45
2023-04-12T04:41:41.613Z,10.42
2023-04-12T04:44:36.254Z,10.37
2023-04-12T04:47:08.768Z,10.33
2023-04-12T04:49:39.591Z,10.31
2023-04-12T04:52:19.704Z,10.34
2023-04-12T04:54:48.794Z,10.37
2023-04-12T04:57:22.525Z,10.39
2023-04-12T04:59:51.762Z,10.40
2023-04-12T05:02:21.551Z,10.36
2023-04-12T05:04:50.066Z,10.24
2023-04-12T05:07:20.523Z,10.21
2023-04-12T05:09:49.673Z,10.25
2023-04-12T05:12:21.574Z,10.25
2023-04-12T05:15:10.498Z,10.27
2023-04-12T05:17:40.128Z,10.30
2023-04-12T05:20:10.951Z,10.32
2023-04-12T05:22:40.538Z,10.29
2023-04-12T05:25:09.288Z,10.27
2023-04-12T05:27:44.408Z,10.31
2023-04-12T05:30:15.704Z,10.33
2023-04-12T05:32:45.575Z,10.34
2023-04-12T05:35:15.117Z,10.33
2023-04-12T05:37:43.895Z,10.32
2023-04-12T05:40:14.111Z,10.34
2023-04-12T05:42:42.897Z,10.36
2023-04-12T05:45:15.754Z,10.35
2023-04-12T05:47:45.710Z,10.32
2023-04-12T05:50:14.632Z,10.33
2023-04-12T05:52:44.721Z,10.36
2023-04-12T05:55:14.252Z,10.39
2023-04-12T05:57:44.584Z,10.36
2023-04-12T06:00:18.764Z,10.29
2023-04-12T06:02:48.322Z,10.30
2023-04-12T06:05:17.942Z,10.32
2023-04-12T06:07:49.811Z,10.27
2023-04-12T06:10:18.501Z,10.26
2023-04-12T06:12:50.871Z,10.25
2023-04-12T06:15:22.337Z,10.27
2023-04-12T06:17:56.765Z,10.33
2023-04-12T06:20:25.730Z,10.33
2023-04-12T06:22:54.561Z,10.31
2023-04-12T06:25:23.273Z,10.30
2023-04-12T06:27:54.350Z,10.33
2023-04-12T06:30:24.853Z,10.35
2023-04-12T06:32:54.902Z,10.36
2023-04-12T06:35:24.969Z,10.39
2023-04-12T06:37:53.587Z,10.40
2023-04-12T06:40:21.824Z,10.35
2023-04-12T06:42:51.923Z,10.24
2023-04-12T06:45:23.813Z,10.17
2023-04-12T06:47:52.033Z,10.18
2023-04-12T06:50:20.428Z,10.22
2023-04-12T06:52:50.048Z,10.25
2023-04-12T06:55:18.497Z,10.23
2023-04-12T06:57:46.882Z,10.20
2023-04-12T07:00:19.087Z,10.18
2023-04-12T07:02:48.167Z,10.17
2023-04-12T07:05:16.983Z,10.17
2023-04-12T07:07:47.527Z,10.21
2023-04-12T07:10:16.311Z,10.27
2023-04-12T07:12:44.524Z,10.31
2023-04-12T07:15:13.919Z,10.32
2023-04-12T07:17:43.240Z,10.29
2023-04-12T07:20:11.973Z,10.27
2023-04-12T07:22:43.216Z,10.26
2023-04-12T07:25:13.482Z,10.26
2023-04-12T07:27:41.714Z,10.26
2023-04-12T07:30:11.149Z,10.23
2023-04-12T07:32:39.964Z,10.19
2023-04-12T07:35:08.830Z,10.15
2023-04-12T07:37:38.066Z,10.16
2023-04-12T07:40:07.394Z,10.17
2023-04-12T07:42:37.033Z,10.20
2023-04-12T07:45:06.355Z,10.26
2023-04-12T07:47:36.260Z,10.29
2023-04-12T07:50:06.268Z,10.33
2023-04-12T07:52:35.097Z,10.37
2023-04-12T07:55:08.009Z,10.39
2023-04-12T07:57:36.682Z,10.41
2023-04-12T08:00:06.026Z,10.47
2023-04-12T08:02:41.812Z,10.52
2023-04-12T08:05:11.844Z,10.49
2023-04-12T08:07:46.625Z,10.45
2023-04-12T08:10:15.024Z,10.42
2023-04-12T08:12:43.939Z,10.43
2023-04-12T08:15:14.228Z,10.42
2023-04-12T08:17:44.157Z,10.41
2023-04-12T08:20:13.943Z,10.40
2023-04-12T08:22:43.121Z,10.41
2023-04-12T08:25:11.920Z,10.44
2023-04-12T08:27:42.294Z,10.44
2023-04-12T08:30:12.396Z,10.43
2023-04-12T08:32:41.990Z,10.38
2023-04-12T08:35:11.335Z,10.36
2023-04-12T08:37:39.828Z,10.39
2023-04-12T08:40:08.364Z,10.45
2023-04-12T08:42:37.767Z,10.50
2023-04-12T08:45:07.509Z,10.53
2023-04-12T08:47:39.473Z,10.57
2023-04-12T08:50:14.395Z,10.58
2023-04-12T08:52:44.190Z,10.59
2023-04-12T08:55:13.066Z,10.62
2023-04-12T08:57:41.950Z,10.67
2023-04-12T09:00:11.391Z,10.74
2023-04-12T09:02:47.319Z,10.75
2023-04-12T09:05:23.388Z,10.77
2023-04-12T09:08:09.712Z,10.81
2023-04-12T09:10:43.786Z,10.84
2023-04-12T09:13:12.285Z,10.87
2023-04-12T09:15:49.338Z,10.89
2023-04-12T09:18:23.412Z,10.88
2023-04-12T09:20:52.707Z,10.85
2023-04-12T09:23:26.372Z,10.83
2023-04-12T09:25:59.291Z,10.83
2023-04-12T09:28:29.989Z,10.85
2023-04-12T09:30:59.319Z,10.87
2023-04-12T09:33:32.764Z,10.94
2023-04-12T09:36:03.031Z,10.99
2023-04-12T09:38:31.988Z,11.04
2023-04-12T09:41:21.326Z,11.03
2023-04-12T09:43:52.363Z,11.05
2023-04-12T09:46:21.335Z,11.08
2023-04-12T09:48:51.441Z,11.12
2023-04-12T09:51:31.453Z,11.15
2023-04-12T09:54:02.335Z,11.15
2023-04-12T09:56:32.507Z,11.15
2023-04-12T09:59:05.890Z,11.12
2023-04-12T10:01:43.883Z,11.10
2023-04-12T10:04:12.681Z,11.12
2023-04-12T10:06:42.053Z,11.13
2023-04-12T10:09:10.377Z,11.16
2023-04-12T10:11:41.963Z,11.17
2023-04-12T10:14:11.933Z,11.18
2023-04-12T10:16:42.765Z,11.20
2023-04-12T10:19:11.413Z,11.19
2023-04-12T10:21:39.901Z,11.18
2023-04-12T10:24:11.238Z,11.20
2023-04-12T10:26:44.330Z,11.22
2023-04-12T10:29:33.855Z,11.25
2023-04-12T10:32:24.663Z,11.26
2023-04-12T10:35:00.926Z,11.24
2023-04-12T10:38:02.077Z,11.22
2023-04-12T10:40:32.416Z,11.22
2023-04-12T10:43:19.959Z,11.21
2023-04-12T10:45:52.287Z,11.19
2023-04-12T10:48:31.602Z,11.18
2023-04-12T10:51:26.925Z,11.16
2023-04-12T10:54:17.056Z,11.14
2023-04-12T10:56:46.808Z,11.13
2023-04-12T10:59:44.891Z,11.10
2023-04-12T11:02:36.721Z,11.11
2023-04-12T11:05:09.873Z,11.09
2023-04-12T11:07:53.539Z,11.09
2023-04-12T11:10:40.938Z,11.10
2023-04-12T11:13:14.730Z,11.12
2023-04-12T11:15:44.159Z,11.14
2023-04-12T11:18:15.949Z,11.13
2023-04-12T11:20:44.580Z,11.14
2023-04-12T11:23:15.829Z,11.15
2023-04-12T11:25:44.448Z,11.16
2023-04-12T11:28:27.988Z,11.17
2023-04-12T11:30:59.077Z,11.19
2023-04-12T11:33:40.053Z,11.15
2023-04-12T11:36:12.487Z,11.14
2023-04-12T11:38:43.025Z,11.16
2023-04-12T11:41:11.741Z,11.15
2023-04-12T11:43:40.419Z,11.12
2023-04-12T11:46:08.917Z,11.08
2023-04-12T11:48:38.956Z,11.06
2023-04-12T11:51:21.346Z,11.08
2023-04-12T11:53:55.527Z,11.09
2023-04-12T11:56:24.189Z,11.10
2023-04-12T11:58:52.833Z,11.13
2023-04-12T12:01:22.350Z,11.17
2023-04-12T12:03:51.968Z,11.20
2023-04-12T12:06:21.012Z,11.21
2023-04-12T12:08:53.430Z,11.22
2023-04-12T12:11:22.376Z,11.23
2023-04-12T12:13:55.593Z,11.25
2023-04-12T12:16:25.610Z,11.29
2023-04-12T12:18:54.083Z,11.32
2023-04-12T12:21:23.364Z,11.35
2023-04-12T12:23:51.720Z,11.38
2023-04-12T12:26:25.792Z,11.38
2023-04-12T12:28:57.831Z,11.38
2023-04-12T12:31:28.838Z,11.42
2023-04-12T12:33:59.369Z,11.46
2023-04-12T12:36:38.993Z,11.47
2023-04-12T12:39:12.542Z,11.49
2023-04-12T12:41:41.425Z,11.52
2023-04-12T12:44:15.621Z,11.59
2023-04-12T12:46:55.170Z,11.66
2023-04-12T12:49:25.450Z,11.69
2023-04-12T12:51:55.049Z,11.69
2023-04-12T12:54:39.561Z,11.65
2023-04-12T12:57:09.366Z,11.60
2023-04-12T12:59:37.668Z,11.60
2023-04-12T13:02:07.576Z,11.58
2023-04-12T13:04:39.340Z,11.60
2023-04-12T13:07:08.981Z,11.60
2023-04-12T13:09:37.385Z,11.59
2023-04-12T13:12:11.773Z,11.59
2023-04-12T13:14:41.963Z,11.60
2023-04-12T13:17:10.591Z,11.64
2023-04-12T13:19:48.007Z,11.64
2023-04-12T13:22:19.601Z,11.63
2023-04-12T13:24:48.234Z,11.63
2023-04-12T13:27:21.552Z,11.66
2023-04-12T13:29:51.632Z,11.70
2023-04-12T13:32:20.324Z,11.72
2023-04-12T13:34:49.184Z,11.75
2023-04-12T13:37:17.523Z,11.74
2023-04-12T13:39:46.987Z,11.73
2023-04-12T13:42:15.245Z,11.73
2023-04-12T13:44:43.522Z,11.73
2023-04-12T13:47:13.563Z,11.71
2023-04-12T13:49:42.133Z,11.70
2023-04-12T13:52:10.619Z,11.70
2023-04-12T13:54:38.793Z,11.68
2023-04-12T13:57:08.195Z,11.68
2023-04-12T13:59:36.879Z,11.67
2023-04-12T14:02:05.664Z,11.69
2023-04-12T14:04:34.344Z,11.72
2023-04-12T14:07:02.961Z,11.76
2023-04-12T14:09:35.258Z,11.74
2023-04-12T14:12:03.651Z,11.75
2023-04-12T14:14:31.906Z,11.76
2023-04-12T14:17:02.085Z,11.77
2023-04-12T14:19:31.093Z,11.78
2023-04-12T14:21:59.517Z,11.78
2023-04-12T14:24:32.032Z,11.80
2023-04-12T14:27:01.224Z,11.83
2023-04-12T14:29:29.702Z,11.85
2023-04-12T14:32:01.458Z,11.88
2023-04-12T14:34:31.282Z,11.92
2023-04-12T14:37:00.514Z,11.96
2023-04-12T14:39:30.767Z,11.95
2023-04-12T14:41:59.110Z,11.95
2023-04-12T14:44:27.828Z,12.01
2023-04-12T14:46:56.270Z,12.08
2023-04-12T14:49:25.637Z,12.14
2023-04-12T14:51:54.659Z,12.18
2023-04-12T14:54:23.897Z,12.23
2023-04-12T14:56:55.775Z,12.25
2023-04-12T14:59:32.803Z,12.27
2023-04-12T15:02:02.118Z,12.29
2023-04-12T15:04:30.985Z,12.31
2023-04-12T15:07:04.792Z,12.32
2023-04-12T15:09:35.520Z,12.36
2023-04-12T15:12:04.471Z,12.41
2023-04-12T15:14:33.610Z,12.43
2023-04-12T15:17:03.711Z,12.44
2023-04-12T15:19:32.528Z,12.48
2023-04-12T15:22:01.245Z,12.49
2023-04-12T15:24:34.179Z,12.48
2023-04-12T15:27:05.845Z,12.49
2023-04-12T15:29:35.605Z,12.51
2023-04-12T15:32:04.958Z,12.54
2023-04-12T15:34:35.354Z,12.57
2023-04-12T15:37:03.706Z,12.59
2023-04-12T15:39:35.931Z,12.59
2023-04-12T15:42:05.387Z,12.58
2023-04-12T15:44:34.244Z,12.58
2023-04-12T15:47:11.005Z,12.57
2023-04-12T15:49:40.513Z,12.55
2023-04-12T15:52:09.311Z,12.51
2023-04-12T15:54:43.687Z,12.48
2023-04-12T15:57:12.669Z,12.48
2023-04-12T15:59:42.146Z,12.48
2023-04-12T16:02:12.631Z,12.46
2023-04-12T16:04:42.901Z,12.40
2023-04-12T16:07:11.684Z,12.41
2023-04-12T16:09:42.922Z,12.47
2023-04-12T16:12:12.018Z,12.47
2023-04-12T16:14:40.757Z,12.46
2023-04-12T16:17:10.075Z,12.42
2023-04-12T16:19:39.275Z,12.34
2023-04-12T16:22:08.819Z,12.31
2023-04-12T16:24:42.718Z,12.30
2023-04-12T16:27:11.087Z,12.30
2023-04-12T16:29:40.439Z,12.27
2023-04-12T16:32:14.942Z,12.24
2023-04-12T16:34:44.734Z,12.22
2023-04-12T16:37:13.190Z,12.20
2023-04-12T16:39:46.644Z,12.19
2023-04-12T16:42:21.183Z,12.18
2023-04-12T16:45:01.176Z,12.15
2023-04-12T16:47:40.165Z,12.12
2023-04-12T16:50:10.590Z,12.10
2023-04-12T16:52:41.945Z,12.10
2023-04-12T16:55:17.859Z,12.11
2023-04-12T16:57:49.913Z,12.10
2023-04-12T17:00:22.388Z,12.09
2023-04-12T17:02:52.583Z,12.12
2023-04-12T17:05:21.810Z,12.12
2023-04-12T17:07:51.911Z,12.10
2023-04-12T17:10:21.326Z,12.08
2023-04-12T17:12:51.438Z,12.08
2023-04-12T17:15:22.069Z,12.09
2023-04-12T17:18:02.404Z,12.09
2023-04-12T17:20:32.452Z,12.09
2023-04-12T17:23:00.946Z,12.06
2023-04-12T17:25:36.082Z,12.03
2023-04-12T17:28:05.221Z,11.99
2023-04-12T17:30:33.767Z,11.97
2023-04-12T17:33:07.540Z,11.95
2023-04-12T17:35:35.895Z,11.96
2023-04-12T17:38:03.978Z,11.96
2023-04-12T17:40:33.715Z,11.97
2023-04-12T17:43:03.660Z,11.96
2023-04-12T17:45:31.833Z,11.94
2023-04-12T17:48:00.523Z,11.94
2023-04-12T17:50:28.794Z,11.93
2023-04-12T17:52:58.964Z,11.90
2023-04-12T17:55:27.405Z,11.86
2023-04-12T17:57:55.903Z,11.83
2023-04-12T18:00:29.102Z,11.80
2023-04-12T18:02:57.790Z,11.77
2023-04-12T18:05:26.243Z,11.72
2023-04-12T18:07:57.137Z,11.71
2023-04-12T18:10:26.896Z,11.67
2023-04-12T18:12:55.831Z,11.64
2023-04-12T18:15:24.666Z,11.61
2023-04-12T18:17:55.822Z,11.58
2023-04-12T18:20:24.842Z,11.57
2023-04-12T18:22:53.387Z,11.57
2023-04-12T18:25:25.914Z,11.54
2023-04-12T18:27:55.763Z,11.47
2023-04-12T18:30:24.348Z,11.38
2023-04-12T18:32:53.658Z,11.31
2023-04-12T18:35:23.059Z,11.26
2023-04-12T18:37:52.565Z,11.23
2023-04-12T18:40:21.764Z,11.19
2023-04-12T18:42:50.634Z,11.13
2023-04-12T18:45:20.055Z,11.08
2023-04-12T18:47:48.129Z,11.03
2023-04-12T18:50:19.468Z,10.96
2023-04-12T18:52:47.564Z,10.85
2023-04-12T18:55:20.659Z,10.77
2023-04-12T18:57:49.846Z,10.72
2023-04-12T19:00:19.803Z,10.70
2023-04-12T19:02:49.092Z,10.70
2023-04-12T19:05:18.688Z,10.67
2023-04-12T19:07:47.362Z,10.66
2023-04-12T19:10:16.237Z,10.66
2023-04-12T19:12:46.188Z,10.65
2023-04-12T19:15:14.504Z,10.63
2023-04-12T19:17:43.564Z,10.61
2023-04-12T19:20:12.178Z,10.57
2023-04-12T19:22:40.499Z,10.55
2023-04-12T19:25:10.070Z,10.55
2023-04-12T19:27:40.942Z,10.56
2023-04-12T19:30:14.186Z,10.54
2023-04-12T19:32:49.367Z,10.55
2023-04-12T19:35:18.797Z,10.53
2023-04-12T19:37:47.386Z,10.51
2023-04-12T19:40:16.033Z,10.48
2023-04-12T19:42:44.471Z,10.46
2023-04-12T19:45:12.748Z,10.47
2023-04-12T19:47:47.354Z,10.49
2023-04-12T19:50:15.793Z,10.51
2023-04-12T19:52:44.232Z,10.50
2023-04-12T19:55:12.579Z,10.49
2023-04-12T19:57:42.146Z,10.48
2023-04-12T20:00:22.800Z,10.45
2023-04-12T20:02:53.403Z,10.45
2023-04-12T20:05:23.332Z,10.44
2023-04-12T20:07:55.300Z,10.44
2023-04-12T20:10:23.451Z,10.44
2023-04-12T20:12:51.726Z,10.45
2023-04-12T20:15:21.195Z,10.47
2023-04-12T20:17:52.118Z,10.50
2023-04-12T20:20:21.527Z,10.51
2023-04-12T20:22:52.226Z,10.52
2023-04-12T20:25:20.714Z,10.54
2023-04-12T20:27:52.319Z,10.56
2023-04-12T20:30:23.715Z,10.59
2023-04-12T20:33:01.484Z,10.59
2023-04-12T20:35:29.902Z,10.60
2023-04-12T20:37:58.032Z,10.61
2023-04-12T20:40:30.089Z,10.65
2023-04-12T20:42:59.922Z,10.66
2023-04-12T20:45:28.159Z,10.67
2023-04-12T20:47:56.372Z,10.69
2023-04-12T20:50:25.364Z,10.71
2023-04-12T20:52:56.394Z,10.75
2023-04-12T20:55:33.161Z,10.78
2023-04-12T20:58:03.504Z,10.81
2023-04-12T21:00:33.861Z,10.83
2023-04-12T21:03:03.137Z,10.86
2023-04-12T21:05:34.753Z,10.88
2023-04-12T21:08:07.139Z,10.92
2023-04-12T21:10:35.366Z,10.96
2023-04-12T21:13:03.535Z,10.99
2023-04-12T21:15:35.481Z,10.99
2023-04-12T21:18:04.495Z,11.01
2023-04-12T21:20:34.265Z,11.02
2023-04-12T21:23:04.295Z,11.02
2023-04-12T21:25:34.490Z,11.04
2023-04-12T21:28:03.608Z,11.07
2023-04-12T21:30:34.245Z,11.04
2023-04-12T21:33:04.494Z,11.05
2023-04-12T21:35:33.073Z,11.04
2023-04-12T21:38:01.832Z,11.04
2023-04-12T21:40:30.779Z,11.05
2023-04-12T21:43:02.204Z,11.06
2023-04-12T21:45:30.543Z,11.06
2023-04-12T21:47:59.793Z,11.05
2023-04-12T21:50:28.224Z,11.05
2023-04-12T21:52:56.442Z,11.07
2023-04-12T21:55:28.508Z,11.07
2023-04-12T21:57:56.643Z,11.09
2023-04-12T22:00:27.313Z,11.08
2023-04-12T22:02:56.651Z,11.07
2023-04-12T22:05:27.988Z,11.09
2023-04-12T22:07:58.094Z,11.11
2023-04-12T22:10:26.123Z,11.16
2023-04-12T22:12:56.369Z,11.18
2023-04-12T22:15:28.534Z,11.16
2023-04-12T22:17:57.080Z,11.17
2023-04-12T22:20:29.784Z,11.17
2023-04-12T22:22:58.472Z,11.15
2023-04-12T22:25:29.687Z,11.14
2023-04-12T22:27:58.326Z,11.12
2023-04-12T22:30:27.360Z,11.09
2023-04-12T22:32:55.780Z,11.09
2023-04-12T22:35:25.779Z,11.10
2023-04-12T22:37:53.872Z,11.12
2023-04-12T22:40:22.625Z,11.16
2023-04-12T22:42:50.651Z,11.21
2023-04-12T22:45:19.982Z,11.23
2023-04-12T22:47:48.507Z,11.22
2023-04-12T22:50:17.633Z,11.22
2023-04-12T22:52:50.109Z,11.20
2023-04-12T22:55:18.756Z,11.16
2023-04-12T22:57:49.504Z,11.17
2023-04-12T23:00:18.373Z,11.18
2023-04-12T23:02:47.879Z,11.15
2023-04-12T23:05:16.669Z,11.14
2023-04-12T23:07:49.461Z,11.16
2023-04-12T23:10:18.444Z,11.18
2023-04-12T23:12:49.369Z,11.21
2023-04-12T23:15:23.536Z,11.26
2023-04-12T23:17:52.373Z,11.28
2023-04-12T23:20:20.521Z,11.28
2023-04-12T23:22:57.467Z,11.31
2023-04-12T23:25:44.975Z,11.36
2023-04-12T23:28:14.301Z,11.39
2023-04-12T23:30:43.387Z,11.42
2023-04-12T23:33:12.427Z,11.45
2023-04-12T23:35:41.388Z,11.49
2023-04-12T23:38:15.723Z,11.52
2023-04-12T23:40:44.093Z,11.55
2023-04-12T23:43:12.642Z,11.57
2023-04-12T23:45:41.483Z,11.59
2023-04-12T23:48:09.956Z,11.60
2023-04-12T23:50:39.212Z,11.59
2023-04-12T23:53:07.601Z,11.56
2023-04-12T23:55:36.574Z,11.58
2023-04-12T23:58:04.786Z,11.59
